createdAt,value
2019-03-13T00:00:54.742Z,4.47
2019-03-13T00:03:23.806Z,3.20
2019-03-13T00:05:53.297Z,4.30
2019-03-13T00:08:22.933Z,4.27
2019-03-13T00:10:52.161Z,3.67
2019-03-13T00:13:21.485Z,3.60
2019-03-13T00:15:50.543Z,3.03
2019-03-13T00:18:21.118Z,3.03
2019-03-13T00:20:50.709Z,3.87
2019-03-13T00:23:23.555Z,3.57
2019-03-13T00:25:53.785Z,3.77
2019-03-13T00:28:22.772Z,6.80
2019-03-13T00:30:52.066Z,3.40
2019-03-13T00:33:22.347Z,3.00
2019-03-13T00:35:51.381Z,3.73
2019-03-13T00:38:21.004Z,3.67
2019-03-13T00:40:49.945Z,3.37
2019-03-13T00:43:19.870Z,3.90
2019-03-13T00:45:48.896Z,5.10
2019-03-13T00:48:19.217Z,3.37
2019-03-13T00:50:50.600Z,2.87
2019-03-13T00:53:20.052Z,3.70
2019-03-13T00:55:49.600Z,2.70
2019-03-13T00:58:19.048Z,3.17
2019-03-13T01:00:54.206Z,6.37
2019-03-13T01:03:41.837Z,4.57
2019-03-13T01:06:15.863Z,3.67
2019-03-13T01:08:44.824Z,4.23
2019-03-13T01:11:14.064Z,4.80
2019-03-13T01:13:43.346Z,3.30
2019-03-13T01:16:12.631Z,3.33
2019-03-13T01:18:41.532Z,4.20
2019-03-13T01:21:11.001Z,4.63
2019-03-13T01:23:40.301Z,4.27
2019-03-13T01:26:11.011Z,4.53
2019-03-13T01:28:40.182Z,4.00
2019-03-13T01:31:20.491Z,4.03
2019-03-13T01:33:50.583Z,4.50
2019-03-13T01:36:20.761Z,3.33
2019-03-13T01:38:49.855Z,3.87
2019-03-13T01:41:19.586Z,3.53
2019-03-13T01:43:48.658Z,4.00
2019-03-13T01:46:17.873Z,3.90
2019-03-13T01:48:46.715Z,2.80
2019-03-13T01:51:15.968Z,5.60
2019-03-13T01:53:45.253Z,4.17
2019-03-13T01:56:14.106Z,4.13
2019-03-13T01:58:43.022Z,6.10
2019-03-13T02:01:11.878Z,4.90
2019-03-13T02:03:41.423Z,8.03
2019-03-13T02:06:10.929Z,3.83
2019-03-13T02:08:39.815Z,4.33
2019-03-13T02:11:08.915Z,4.10
2019-03-13T02:13:38.006Z,4.47
2019-03-13T02:16:07.096Z,6.50
2019-03-13T02:18:36.398Z,5.50
2019-03-13T02:21:05.493Z,4.40
2019-03-13T02:23:34.387Z,3.90
2019-03-13T02:26:03.451Z,5.93
2019-03-13T02:28:33.675Z,5.77
2019-03-13T02:31:02.694Z,5.00
2019-03-13T02:33:33.296Z,4.93
2019-03-13T02:36:02.326Z,3.83
2019-03-13T02:38:32.028Z,5.53
2019-03-13T02:41:00.964Z,4.77
2019-03-13T02:43:30.221Z,5.20
2019-03-13T02:45:59.116Z,4.87
2019-03-13T02:48:28.208Z,3.90
2019-03-13T02:50:57.097Z,3.80
2019-03-13T02:53:26.203Z,4.40
2019-03-13T02:55:55.280Z,6.37
2019-03-13T02:58:24.392Z,4.70
2019-03-13T03:00:59.432Z,6.37
2019-03-13T03:03:31.956Z,5.43
2019-03-13T03:06:01.085Z,3.93
2019-03-13T03:08:30.200Z,4.70
2019-03-13T03:10:59.086Z,4.50
2019-03-13T03:13:28.177Z,4.70
2019-03-13T03:15:57.209Z,6.20
2019-03-13T03:18:27.773Z,5.37
2019-03-13T03:20:57.097Z,5.30
2019-03-13T03:23:26.189Z,7.87
2019-03-13T03:25:55.276Z,4.70
2019-03-13T03:28:24.172Z,4.50
2019-03-13T03:30:54.094Z,7.33
2019-03-13T03:33:23.197Z,5.87
2019-03-13T03:35:52.279Z,4.67
2019-03-13T03:38:21.345Z,4.63
2019-03-13T03:40:50.462Z,4.57
2019-03-13T03:43:20.179Z,6.40
2019-03-13T03:45:49.474Z,5.50
2019-03-13T03:48:18.572Z,6.00
2019-03-13T03:50:47.641Z,9.13
2019-03-13T03:53:16.829Z,8.67
2019-03-13T03:55:46.062Z,7.10
2019-03-13T03:58:15.771Z,6.63
2019-03-13T04:00:44.864Z,4.90
2019-03-13T04:03:13.957Z,4.17
2019-03-13T04:05:43.266Z,4.43
2019-03-13T04:11:39.975Z,3.97
2019-03-13T04:17:02.385Z,5.53
2019-03-13T04:19:31.473Z,7.10
2019-03-13T04:22:00.363Z,5.70
2019-03-13T04:24:29.711Z,5.17
2019-03-13T04:26:58.774Z,4.07
2019-03-13T04:29:27.871Z,5.27
2019-03-13T04:31:57.587Z,5.27
2019-03-13T04:34:26.662Z,5.00
2019-03-13T04:36:55.549Z,6.33
2019-03-13T04:39:25.052Z,7.13
2019-03-13T04:41:54.134Z,7.10
2019-03-13T04:44:23.769Z,6.27
2019-03-13T04:50:18.733Z,5.70
2019-03-13T04:52:47.863Z,5.57
2019-03-13T04:55:16.954Z,6.50
2019-03-13T04:57:46.659Z,3.63
2019-03-13T05:00:15.801Z,6.50
2019-03-13T05:02:45.277Z,11.90
2019-03-13T05:05:25.633Z,7.50
2019-03-13T05:07:54.495Z,7.33
2019-03-13T05:10:23.827Z,7.83
2019-03-13T05:12:52.916Z,10.53
2019-03-13T05:15:22.221Z,8.70
2019-03-13T05:17:51.214Z,8.73
2019-03-13T05:20:20.109Z,7.23
2019-03-13T05:22:49.221Z,6.90
2019-03-13T05:25:19.350Z,6.53
2019-03-13T05:27:47.694Z,7.57
2019-03-13T05:30:16.962Z,9.20
2019-03-13T05:32:47.114Z,7.37
2019-03-13T05:35:16.178Z,8.97
2019-03-13T05:37:45.063Z,8.33
2019-03-13T05:40:14.833Z,5.67
2019-03-13T05:42:43.884Z,8.10
2019-03-13T05:45:12.972Z,8.57
2019-03-13T05:47:42.094Z,6.93
2019-03-13T05:50:11.398Z,6.90
2019-03-13T05:52:40.286Z,10.47
2019-03-13T05:55:09.994Z,12.43
2019-03-13T05:57:38.900Z,10.77
2019-03-13T06:00:08.054Z,9.40
2019-03-13T06:02:36.897Z,8.50
2019-03-13T06:05:05.903Z,8.27
2019-03-13T06:07:34.772Z,10.93
2019-03-13T06:10:04.413Z,10.03
2019-03-13T06:12:33.662Z,7.77
2019-03-13T06:15:03.766Z,8.00
2019-03-13T06:17:31.838Z,7.70
2019-03-13T06:20:01.127Z,12.93
2019-03-13T06:22:30.245Z,10.40
2019-03-13T06:24:59.299Z,9.53
2019-03-13T06:27:28.413Z,10.77
2019-03-13T06:29:57.641Z,9.50
2019-03-13T06:32:26.503Z,11.33
2019-03-13T06:34:56.775Z,14.00
2019-03-13T06:37:26.176Z,14.57
2019-03-13T06:39:55.021Z,27.70
2019-03-13T06:42:23.937Z,19.10
2019-03-13T06:44:53.311Z,17.27
2019-03-13T06:47:24.935Z,12.00
2019-03-13T06:49:51.493Z,16.27
2019-03-13T06:52:20.710Z,13.77
2019-03-13T06:54:49.571Z,9.00
2019-03-13T06:57:18.461Z,13.53
2019-03-13T06:59:53.224Z,16.87
2019-03-13T07:02:41.627Z,15.37
2019-03-13T07:05:14.732Z,17.17
2019-03-13T07:09:50.244Z,11.80
2019-03-13T07:12:24.229Z,8.80
2019-03-13T07:15:00.094Z,13.83
2019-03-13T07:17:34.503Z,11.80
2019-03-13T07:22:10.374Z,11.40
2019-03-13T07:24:43.645Z,8.90
2019-03-13T07:27:23.919Z,18.47
2019-03-13T07:32:00.858Z,11.17
2019-03-13T07:35:37.443Z,11.50
2019-03-13T07:38:15.848Z,15.33
2019-03-13T07:42:51.204Z,20.47
2019-03-13T07:45:29.114Z,11.83
2019-03-13T07:50:10.502Z,9.83
2019-03-13T07:52:44.364Z,13.63
2019-03-13T07:55:19.438Z,9.77
2019-03-13T07:57:53.556Z,14.50
2019-03-13T08:00:58.896Z,11.53
2019-03-13T08:03:33.059Z,10.03
2019-03-13T08:06:11.467Z,10.40
2019-03-13T08:09:16.479Z,10.03
2019-03-13T08:11:58.738Z,14.90
2019-03-13T08:14:32.723Z,9.67
2019-03-13T08:17:08.884Z,13.03
2019-03-13T08:19:42.940Z,14.87
2019-03-13T08:22:19.874Z,9.30
2019-03-13T08:24:56.097Z,8.40
2019-03-13T08:27:30.339Z,12.30
2019-03-13T08:30:04.884Z,14.27
2019-03-13T08:32:40.164Z,10.67
2019-03-13T08:35:24.759Z,11.50
2019-03-13T08:38:58.180Z,12.00
2019-03-13T08:42:03.959Z,13.03
2019-03-13T08:44:42.455Z,12.10
2019-03-13T08:47:17.934Z,15.77
2019-03-13T08:49:54.858Z,12.43
2019-03-13T08:52:31.720Z,10.07
2019-03-13T08:55:05.080Z,11.23
2019-03-13T08:57:41.208Z,13.73
2019-03-13T09:00:35.900Z,9.40
2019-03-13T09:03:16.181Z,10.00
2019-03-13T09:06:05.132Z,10.30
2019-03-13T09:08:41.394Z,12.20
2019-03-13T09:11:15.403Z,8.37
2019-03-13T09:13:49.583Z,11.53
2019-03-13T09:16:23.514Z,9.03
2019-03-13T09:19:00.680Z,12.57
2019-03-13T09:21:39.800Z,14.30
2019-03-13T09:24:28.186Z,10.20
2019-03-13T09:28:04.564Z,8.90
2019-03-13T09:30:40.979Z,8.03
2019-03-13T09:33:18.053Z,10.27
2019-03-13T09:35:54.441Z,10.50
2019-03-13T09:38:31.444Z,13.20
2019-03-13T09:41:05.719Z,8.37
2019-03-13T09:45:41.398Z,13.60
2019-03-13T09:48:16.275Z,8.90
2019-03-13T09:50:51.344Z,10.93
2019-03-13T09:53:29.612Z,11.67
2019-03-13T09:56:04.037Z,7.87
2019-03-13T09:59:44.211Z,9.93
2019-03-13T10:04:21.310Z,14.03
2019-03-13T10:08:57.764Z,10.60
2019-03-13T10:11:32.681Z,13.90
2019-03-13T10:14:07.008Z,10.93
2019-03-13T10:16:41.483Z,13.40
2019-03-13T10:19:15.415Z,8.63
2019-03-13T10:21:55.422Z,11.87
2019-03-13T10:24:33.473Z,20.27
2019-03-13T10:27:07.889Z,9.80
2019-03-13T10:29:46.802Z,11.90
2019-03-13T10:32:32.779Z,9.50
2019-03-13T10:35:21.235Z,8.00
2019-03-13T10:37:54.564Z,13.80
2019-03-13T10:40:32.913Z,12.83
2019-03-13T10:44:09.258Z,12.70
2019-03-13T10:46:42.739Z,9.60
2019-03-13T10:49:45.011Z,9.90
2019-03-13T10:53:17.417Z,8.83
2019-03-13T10:56:55.918Z,15.43
2019-03-13T11:00:00.891Z,13.47
2019-03-13T11:02:36.004Z,12.50
2019-03-13T11:05:44.109Z,11.10
2019-03-13T11:08:19.205Z,9.77
2019-03-13T11:10:59.574Z,10.97
2019-03-13T11:13:48.615Z,8.70
2019-03-13T11:16:24.820Z,9.17
2019-03-13T11:21:04.037Z,8.00
2019-03-13T11:24:40.146Z,9.77
2019-03-13T11:27:16.119Z,7.70
2019-03-13T11:29:50.232Z,7.53
2019-03-13T11:32:23.370Z,8.20
2019-03-13T11:35:04.664Z,6.50
2019-03-13T11:37:42.678Z,9.37
2019-03-13T11:40:27.381Z,8.83
2019-03-13T11:43:05.368Z,6.70
2019-03-13T11:45:39.732Z,7.03
2019-03-13T11:48:18.805Z,7.60
2019-03-13T11:50:53.650Z,9.57
2019-03-13T11:53:29.691Z,8.47
2019-03-13T11:56:09.749Z,6.27
2019-03-13T11:58:43.095Z,8.90
2019-03-13T12:01:49.524Z,9.73
2019-03-13T12:04:24.566Z,8.63
2019-03-13T12:07:13.449Z,8.10
2019-03-13T12:09:47.924Z,7.37
2019-03-13T12:12:23.260Z,6.53
2019-03-13T12:15:14.372Z,6.50
2019-03-13T12:19:54.359Z,7.20
2019-03-13T12:22:30.270Z,7.37
2019-03-13T12:25:09.214Z,6.30
2019-03-13T12:27:44.171Z,9.77
2019-03-13T12:30:21.153Z,5.83
2019-03-13T12:32:55.164Z,14.30
2019-03-13T12:35:29.409Z,9.20
2019-03-13T12:38:05.646Z,6.30
2019-03-13T12:42:41.224Z,6.37
2019-03-13T12:45:22.764Z,6.97
2019-03-13T12:47:58.848Z,8.37
2019-03-13T12:50:40.004Z,6.00
2019-03-13T12:53:19.540Z,6.80
2019-03-13T12:56:23.872Z,7.77
2019-03-13T12:59:08.191Z,7.17
2019-03-13T13:01:41.405Z,10.33
2019-03-13T13:06:16.748Z,6.43
2019-03-13T13:10:53.180Z,6.03
2019-03-13T13:13:30.630Z,8.60
2019-03-13T13:16:05.671Z,6.60
2019-03-13T13:18:40.084Z,9.83
2019-03-13T13:21:09.371Z,9.57
2019-03-13T13:23:38.879Z,9.70
2019-03-13T13:26:07.809Z,7.20
2019-03-13T13:28:36.723Z,8.53
2019-03-13T13:31:05.593Z,6.27
2019-03-13T13:33:34.461Z,8.30
2019-03-13T13:36:03.467Z,7.80
2019-03-13T13:38:32.439Z,7.90
2019-03-13T13:41:01.535Z,7.20
2019-03-13T13:43:30.850Z,8.20
2019-03-13T13:46:05.459Z,8.37
2019-03-13T13:48:34.305Z,8.83
2019-03-13T13:51:03.530Z,6.10
2019-03-13T13:53:32.421Z,7.83
2019-03-13T13:56:01.315Z,6.47
2019-03-13T13:58:30.476Z,9.37
2019-03-13T14:00:59.429Z,7.43
2019-03-13T14:03:28.296Z,7.20
2019-03-13T14:05:57.474Z,5.70
2019-03-13T14:08:26.409Z,8.10
2019-03-13T14:10:55.589Z,5.53
2019-03-13T14:13:24.684Z,6.37
2019-03-13T14:15:53.777Z,5.00
2019-03-13T14:18:22.669Z,7.10
2019-03-13T14:20:51.735Z,6.63
2019-03-13T14:23:20.697Z,4.87
2019-03-13T14:25:50.547Z,6.10
2019-03-13T14:28:19.490Z,5.00
2019-03-13T14:30:49.141Z,9.27
2019-03-13T14:33:18.266Z,5.33
2019-03-13T14:35:47.159Z,3.90
2019-03-13T14:38:16.249Z,4.73
2019-03-13T14:40:45.735Z,7.03
2019-03-13T14:43:14.642Z,5.80
2019-03-13T14:45:43.530Z,6.13
2019-03-13T14:48:13.042Z,4.60
2019-03-13T14:50:41.888Z,5.70
2019-03-13T14:53:10.970Z,4.93
2019-03-13T14:55:40.116Z,4.93
2019-03-13T14:58:09.222Z,5.30
2019-03-13T15:00:38.169Z,6.40
2019-03-13T15:03:07.259Z,6.20
2019-03-13T15:05:36.429Z,4.83
2019-03-13T15:08:05.434Z,4.83
2019-03-13T15:10:34.866Z,5.50
2019-03-13T15:13:03.752Z,5.93
2019-03-13T15:15:32.887Z,4.03
2019-03-13T15:18:02.368Z,5.50
2019-03-13T15:20:31.264Z,8.37
2019-03-13T15:23:00.372Z,4.40
2019-03-13T15:25:29.206Z,5.23
2019-03-13T15:27:58.104Z,6.87
2019-03-13T15:30:27.455Z,4.17
2019-03-13T15:32:56.643Z,3.90
2019-03-13T15:35:25.546Z,5.63
2019-03-13T15:37:54.722Z,5.80
2019-03-13T15:40:23.806Z,4.83
2019-03-13T15:42:52.705Z,6.87
2019-03-13T15:45:21.826Z,4.87
2019-03-13T15:47:50.764Z,6.10
2019-03-13T15:50:19.711Z,4.37
2019-03-13T15:52:48.680Z,6.33
2019-03-13T15:55:17.926Z,5.60
2019-03-13T15:57:46.845Z,6.07
2019-03-13T16:00:18.374Z,5.90
2019-03-13T16:02:47.289Z,5.30
2019-03-13T16:05:16.482Z,8.00
2019-03-13T16:07:45.425Z,6.90
2019-03-13T16:10:14.476Z,4.90
2019-03-13T16:12:43.732Z,5.70
2019-03-13T16:15:14.985Z,7.23
2019-03-13T16:17:43.985Z,4.27
2019-03-13T16:20:13.698Z,6.87
2019-03-13T16:22:43.580Z,5.43
2019-03-13T16:25:12.698Z,5.87
2019-03-13T16:27:41.624Z,5.90
2019-03-13T16:30:13.975Z,6.13
2019-03-13T16:32:44.182Z,5.17
2019-03-13T16:35:12.958Z,5.07
2019-03-13T16:37:42.221Z,4.93
2019-03-13T16:40:12.863Z,5.50
2019-03-13T16:42:42.616Z,4.83
2019-03-13T16:45:12.434Z,5.17
2019-03-13T16:47:44.738Z,5.00
2019-03-13T16:50:13.022Z,5.20
2019-03-13T16:52:41.950Z,5.13
2019-03-13T16:55:13.070Z,5.87
2019-03-13T16:57:42.013Z,6.97
2019-03-13T17:00:14.340Z,5.70
2019-03-13T17:02:43.444Z,5.77
2019-03-13T17:05:13.167Z,7.00
2019-03-13T17:07:42.167Z,6.80
2019-03-13T17:10:12.246Z,4.40
2019-03-13T17:12:41.571Z,5.57
2019-03-13T17:15:13.000Z,6.10
2019-03-13T17:17:42.137Z,7.07
2019-03-13T17:20:14.117Z,4.30
2019-03-13T17:22:43.443Z,6.47
2019-03-13T17:25:13.649Z,5.83
2019-03-13T17:27:42.647Z,6.07
2019-03-13T17:30:14.494Z,6.07
2019-03-13T17:32:43.810Z,6.33
2019-03-13T17:35:12.873Z,5.03
2019-03-13T17:37:41.982Z,7.73
2019-03-13T17:40:13.600Z,4.80
2019-03-13T17:42:42.621Z,4.40
2019-03-13T17:45:13.635Z,5.43
2019-03-13T17:47:45.332Z,6.00
2019-03-13T17:50:15.411Z,3.40
2019-03-13T17:52:44.750Z,4.67
2019-03-13T17:55:14.408Z,4.90
2019-03-13T17:57:43.341Z,4.67
2019-03-13T18:00:15.438Z,4.33
2019-03-13T18:02:44.363Z,5.17
2019-03-13T18:05:13.384Z,5.10
2019-03-13T18:07:42.837Z,7.20
2019-03-13T18:10:13.617Z,3.97
2019-03-13T18:12:43.053Z,6.03
2019-03-13T18:15:12.186Z,4.83
2019-03-13T18:17:41.257Z,5.93
2019-03-13T18:20:12.364Z,4.10
2019-03-13T18:22:41.502Z,5.13
2019-03-13T18:25:11.301Z,5.67
2019-03-13T18:27:40.496Z,4.67
2019-03-13T18:30:14.906Z,5.90
2019-03-13T18:32:44.030Z,4.87
2019-03-13T18:35:13.124Z,6.40
2019-03-13T18:37:42.125Z,5.43
2019-03-13T18:40:11.220Z,5.23
2019-03-13T18:42:40.414Z,5.10
2019-03-13T18:45:12.660Z,5.50
2019-03-13T18:47:41.665Z,6.20
2019-03-13T18:50:11.470Z,6.40
2019-03-13T18:52:40.643Z,6.10
2019-03-13T18:55:10.832Z,5.17
2019-03-13T18:57:40.508Z,4.80
2019-03-13T19:00:15.405Z,8.60
2019-03-13T19:02:44.333Z,4.60
2019-03-13T19:05:13.526Z,6.03
2019-03-13T19:07:42.986Z,7.57
2019-03-13T19:10:12.347Z,8.10
2019-03-13T19:12:41.298Z,7.57
2019-03-13T19:15:13.190Z,6.57
2019-03-13T19:17:42.186Z,6.80
2019-03-13T19:20:12.132Z,6.33
2019-03-13T19:22:40.620Z,4.60
2019-03-13T19:25:10.481Z,5.50
2019-03-13T19:27:39.758Z,7.23
2019-03-13T19:30:13.905Z,5.17
2019-03-13T19:32:43.577Z,6.40
2019-03-13T19:35:13.257Z,7.20
2019-03-13T19:37:42.575Z,6.13
2019-03-13T19:40:12.538Z,7.80
2019-03-13T19:42:42.047Z,5.63
2019-03-13T19:45:14.593Z,5.37
2019-03-13T19:47:43.718Z,6.67
2019-03-13T19:50:13.225Z,6.60
2019-03-13T19:52:42.748Z,7.37
2019-03-13T19:55:12.568Z,7.33
2019-03-13T19:57:41.564Z,5.73
2019-03-13T20:00:13.988Z,6.97
2019-03-13T20:02:43.446Z,6.40
2019-03-13T20:05:13.802Z,9.87
2019-03-13T20:07:43.363Z,7.13
2019-03-13T20:10:15.312Z,6.00
2019-03-13T20:12:44.615Z,5.50
2019-03-13T20:15:15.644Z,7.43
2019-03-13T20:17:45.384Z,7.03
2019-03-13T20:20:16.088Z,6.13
2019-03-13T20:22:45.205Z,7.17
2019-03-13T20:25:17.484Z,6.43
2019-03-13T20:27:44.790Z,7.20
2019-03-13T20:30:17.488Z,7.67
2019-03-13T20:32:47.216Z,6.20
2019-03-13T20:35:17.277Z,8.30
2019-03-13T20:37:46.878Z,5.97
2019-03-13T20:40:19.148Z,7.00
2019-03-13T20:42:48.508Z,8.60
2019-03-13T20:45:19.836Z,6.93
2019-03-13T20:47:49.517Z,8.27
2019-03-13T20:50:18.687Z,8.63
2019-03-13T20:52:47.938Z,6.77
2019-03-13T20:55:17.659Z,5.23
2019-03-13T20:57:46.727Z,4.53
2019-03-13T21:00:19.326Z,5.57
2019-03-13T21:02:48.423Z,5.63
2019-03-13T21:05:17.940Z,7.43
2019-03-13T21:07:47.505Z,8.57
2019-03-13T21:10:16.905Z,5.77
2019-03-13T21:12:46.028Z,8.83
2019-03-13T21:15:15.534Z,8.10
2019-03-13T21:17:44.831Z,8.03
2019-03-13T21:20:14.954Z,5.40
2019-03-13T21:22:44.049Z,5.97
2019-03-13T21:25:13.692Z,6.33
2019-03-13T21:27:42.648Z,5.97
2019-03-13T21:30:15.934Z,5.83
2019-03-13T21:32:45.043Z,6.80
2019-03-13T21:35:14.232Z,6.37
2019-03-13T21:37:43.888Z,9.57
2019-03-13T21:40:13.828Z,6.30
2019-03-13T21:42:43.232Z,11.03
2019-03-13T21:45:22.331Z,7.17
2019-03-13T21:47:46.057Z,7.77
2019-03-13T21:50:16.353Z,10.20
2019-03-13T21:52:45.272Z,8.80
2019-03-13T21:55:14.572Z,10.40
2019-03-13T21:57:44.074Z,4.80
2019-03-13T22:00:17.071Z,7.03
2019-03-13T22:02:46.447Z,10.33
2019-03-13T22:05:25.634Z,9.40
2019-03-13T22:10:37.876Z,11.50
2019-03-13T22:13:12.434Z,7.20
2019-03-13T22:15:53.903Z,7.53
2019-03-13T22:18:23.533Z,8.00
2019-03-13T22:21:13.538Z,7.67
2019-03-13T22:23:44.056Z,8.60
2019-03-13T22:26:13.868Z,6.20
2019-03-13T22:28:46.178Z,11.10
2019-03-13T22:31:16.468Z,8.50
2019-03-13T22:33:45.338Z,8.67
2019-03-13T22:36:15.258Z,8.83
2019-03-13T22:38:50.873Z,9.97
2019-03-13T22:41:20.263Z,10.10
2019-03-13T22:43:49.367Z,6.70
2019-03-13T22:46:18.663Z,9.87
2019-03-13T22:48:57.615Z,7.63
2019-03-13T22:51:18.183Z,7.03
2019-03-13T22:53:47.118Z,9.43
2019-03-13T22:59:20.938Z,6.67
2019-03-13T23:01:49.839Z,8.50
2019-03-13T23:04:31.559Z,7.47
2019-03-13T23:07:02.039Z,7.07
2019-03-13T23:09:33.463Z,5.73
2019-03-13T23:12:04.766Z,7.50
2019-03-13T23:14:34.242Z,6.80
2019-03-13T23:17:04.391Z,8.23
2019-03-13T23:19:34.943Z,7.50
2019-03-13T23:22:04.243Z,8.63
2019-03-13T23:24:33.459Z,11.53
2019-03-13T23:27:03.078Z,9.03
2019-03-13T23:29:32.739Z,6.87
2019-03-13T23:32:02.837Z,10.27
2019-03-13T23:34:32.237Z,7.10
2019-03-13T23:37:01.478Z,10.80
2019-03-13T23:39:33.597Z,7.63
2019-03-13T23:42:11.727Z,7.27
2019-03-13T23:44:41.741Z,6.30
2019-03-13T23:47:10.719Z,8.90
2019-03-13T23:49:40.678Z,4.60
2019-03-13T23:52:09.727Z,7.30
2019-03-13T23:54:38.677Z,7.67
2019-03-13T23:57:08.169Z,6.57
